createdAt,value
2022-11-06T00:00:45.258Z,22.54
2022-11-06T00:03:12.144Z,22.52
2022-11-06T00:06:01.312Z,22.53
2022-11-06T00:08:33.342Z,22.52
2022-11-06T00:11:00.405Z,22.50
2022-11-06T00:13:27.839Z,22.51
2022-11-06T00:15:54.579Z,22.50
2022-11-06T00:18:21.134Z,22.49
2022-11-06T00:20:47.889Z,22.50
2022-11-06T00:23:14.391Z,22.48
2022-11-06T00:25:41.970Z,22.49
2022-11-06T00:28:08.813Z,22.49
2022-11-06T00:30:35.375Z,22.48
2022-11-06T00:33:01.914Z,22.48
2022-11-06T00:35:28.988Z,22.48
2022-11-06T00:37:56.204Z,22.36
2022-11-06T00:40:23.134Z,22.41
2022-11-06T00:42:54.322Z,22.46
2022-11-06T00:45:21.011Z,22.42
2022-11-06T00:47:47.503Z,22.46
2022-11-06T00:50:14.215Z,22.45
2022-11-06T00:52:40.763Z,22.42
2022-11-06T00:57:25.087Z,22.45
2022-11-06T00:59:51.604Z,22.45
2022-11-06T01:02:19.565Z,22.44
2022-11-06T01:04:47.119Z,22.45
2022-11-06T01:07:13.667Z,22.44
2022-11-06T01:09:40.199Z,22.44
2022-11-06T01:12:13.208Z,22.44
2022-11-06T01:14:41.740Z,22.44
2022-11-06T01:17:08.345Z,22.44
2022-11-06T01:19:34.959Z,22.42
2022-11-06T01:22:01.569Z,22.42
2022-11-06T01:24:29.331Z,22.32
2022-11-06T01:27:24.918Z,22.43
2022-11-06T01:29:43.340Z,22.33
2022-11-06T01:32:09.963Z,22.42
2022-11-06T01:34:36.648Z,22.41
2022-11-06T01:37:03.477Z,22.41
2022-11-06T01:39:30.166Z,22.41
2022-11-06T01:41:56.662Z,22.41
2022-11-06T01:44:35.680Z,22.40
2022-11-06T01:47:06.610Z,22.37
2022-11-06T01:49:37.898Z,22.40
2022-11-06T01:52:10.071Z,22.40
2022-11-06T01:54:38.382Z,22.40
2022-11-06T01:57:05.681Z,22.28
2022-11-06T01:59:35.875Z,22.39
2022-11-06T02:02:02.762Z,22.39
2022-11-06T02:04:34.424Z,22.38
2022-11-06T02:07:01.206Z,22.38
2022-11-06T02:09:30.403Z,22.37
2022-11-06T02:12:22.214Z,22.37
2022-11-06T02:15:08.648Z,22.37
2022-11-06T02:17:52.118Z,22.35
2022-11-06T02:20:44.891Z,22.35
2022-11-06T02:23:44.167Z,22.35
2022-11-06T02:26:34.158Z,22.34
2022-11-06T02:29:07.820Z,22.34
2022-11-06T02:31:36.731Z,22.24
2022-11-06T02:34:10.067Z,22.33
2022-11-06T02:36:56.450Z,22.33
2022-11-06T02:39:27.198Z,22.33
2022-11-06T02:41:57.752Z,22.32
2022-11-06T02:44:28.755Z,22.33
2022-11-06T02:47:06.770Z,22.32
2022-11-06T02:50:01.502Z,22.33
2022-11-06T02:52:38.100Z,22.32
2022-11-06T02:55:11.265Z,22.32
2022-11-06T02:57:42.184Z,22.32
2022-11-06T03:00:15.771Z,22.19
2022-11-06T03:02:53.638Z,22.31
2022-11-06T03:05:24.841Z,22.30
2022-11-06T03:07:59.348Z,22.30
2022-11-06T03:10:32.529Z,22.30
2022-11-06T03:13:09.689Z,22.31
2022-11-06T03:15:45.198Z,22.30
2022-11-06T03:18:43.416Z,22.29
2022-11-06T03:21:25.894Z,22.29
2022-11-06T03:23:59.213Z,22.29
2022-11-06T03:26:38.486Z,22.29
2022-11-06T03:29:25.822Z,22.28
2022-11-06T03:32:01.606Z,22.28
2022-11-06T03:34:33.093Z,22.27
2022-11-06T03:37:07.647Z,22.27
2022-11-06T03:39:42.560Z,22.27
2022-11-06T03:42:16.830Z,22.27
2022-11-06T03:44:49.521Z,22.26
2022-11-06T03:47:24.331Z,22.26
2022-11-06T03:49:57.627Z,22.25
2022-11-06T03:52:30.690Z,22.25
2022-11-06T03:55:07.807Z,22.18
2022-11-06T03:57:50.587Z,22.25
2022-11-06T04:00:20.393Z,22.25
2022-11-06T04:02:52.451Z,22.24
2022-11-06T04:05:22.753Z,22.25
2022-11-06T04:08:13.016Z,22.24
2022-11-06T04:11:03.597Z,22.20
2022-11-06T04:13:52.555Z,22.22
2022-11-06T04:16:19.269Z,22.23
2022-11-06T04:18:45.792Z,22.22
2022-11-06T04:21:34.353Z,22.21
2022-11-06T04:24:34.550Z,22.21
2022-11-06T04:27:13.467Z,22.20
2022-11-06T04:30:08.026Z,22.18
2022-11-06T04:32:40.421Z,22.19
2022-11-06T04:35:15.796Z,22.17
2022-11-06T04:38:30.474Z,22.18
2022-11-06T04:41:06.151Z,22.18
2022-11-06T04:43:50.632Z,22.17
2022-11-06T04:46:23.536Z,22.17
2022-11-06T04:48:50.934Z,22.16
2022-11-06T04:51:22.682Z,22.17
2022-11-06T04:53:52.094Z,22.16
2022-11-06T04:56:35.268Z,22.16
2022-11-06T04:59:07.210Z,22.16
2022-11-06T05:01:34.339Z,22.17
2022-11-06T05:04:01.011Z,22.15
2022-11-06T05:06:30.150Z,22.15
2022-11-06T05:08:58.931Z,22.16
2022-11-06T05:11:25.460Z,22.13
2022-11-06T05:13:52.041Z,22.14
2022-11-06T05:16:18.755Z,22.14
2022-11-06T05:18:45.253Z,22.15
2022-11-06T05:21:30.923Z,22.15
2022-11-06T05:23:57.500Z,22.13
2022-11-06T05:26:24.025Z,22.13
2022-11-06T05:28:50.613Z,22.01
2022-11-06T05:31:17.354Z,22.01
2022-11-06T05:33:43.878Z,22.13
2022-11-06T05:36:10.635Z,22.12
2022-11-06T05:38:37.166Z,22.13
2022-11-06T05:41:03.763Z,22.12
2022-11-06T05:43:30.939Z,22.12
2022-11-06T05:45:57.575Z,22.10
2022-11-06T05:48:24.219Z,22.12
2022-11-06T05:50:50.787Z,21.69
2022-11-06T05:53:17.352Z,22.11
2022-11-06T05:55:49.742Z,22.10
2022-11-06T05:58:16.610Z,22.10
2022-11-06T06:00:43.249Z,22.10
2022-11-06T06:03:10.548Z,22.09
2022-11-06T06:05:37.278Z,22.09
2022-11-06T06:08:04.906Z,22.09
2022-11-06T06:10:31.398Z,22.09
2022-11-06T06:12:57.979Z,22.09
2022-11-06T06:15:24.570Z,22.08
2022-11-06T06:17:51.115Z,22.09
2022-11-06T06:20:17.782Z,22.08
2022-11-06T06:22:53.230Z,22.07
2022-11-06T06:25:22.899Z,22.07
2022-11-06T06:27:50.125Z,22.07
2022-11-06T06:30:16.927Z,22.07
2022-11-06T06:32:43.986Z,22.08
2022-11-06T06:35:10.849Z,22.09
2022-11-06T06:37:37.833Z,22.07
2022-11-06T06:40:05.531Z,21.98
2022-11-06T06:42:32.231Z,22.09
2022-11-06T06:44:58.728Z,22.08
2022-11-06T06:47:25.312Z,22.08
2022-11-06T06:49:51.802Z,22.08
2022-11-06T06:52:18.350Z,22.08
2022-11-06T06:54:45.291Z,22.08
2022-11-06T06:57:11.973Z,22.08
2022-11-06T06:59:38.492Z,21.98
2022-11-06T07:02:05.203Z,22.08
2022-11-06T07:04:31.775Z,22.09
2022-11-06T07:06:58.336Z,22.08
2022-11-06T07:09:25.008Z,22.08
2022-11-06T07:11:51.577Z,22.09
2022-11-06T07:14:18.163Z,22.08
2022-11-06T07:16:47.381Z,22.10
2022-11-06T07:19:17.647Z,22.09
2022-11-06T07:21:44.139Z,22.10
2022-11-06T07:26:36.139Z,22.14
2022-11-06T07:29:02.763Z,22.17
2022-11-06T07:31:31.267Z,22.19
2022-11-06T07:33:57.945Z,22.22
2022-11-06T07:36:24.588Z,22.26
2022-11-06T07:38:51.205Z,22.27
2022-11-06T07:41:17.709Z,22.30
2022-11-06T07:43:44.817Z,22.31
2022-11-06T07:46:12.786Z,22.33
2022-11-06T07:48:39.832Z,22.30
2022-11-06T07:51:09.399Z,22.31
2022-11-06T07:53:36.430Z,22.31
2022-11-06T07:56:03.069Z,22.32
2022-11-06T07:58:29.878Z,22.30
2022-11-06T08:00:58.538Z,22.28
2022-11-06T08:03:26.769Z,22.26
2022-11-06T08:05:53.342Z,22.23
2022-11-06T08:08:19.952Z,22.21
2022-11-06T08:10:47.668Z,22.20
2022-11-06T08:13:16.864Z,22.18
2022-11-06T08:15:43.547Z,22.18
2022-11-06T08:18:11.496Z,22.17
2022-11-06T08:20:39.333Z,22.16
2022-11-06T08:23:08.803Z,22.15
2022-11-06T08:25:35.439Z,22.16
2022-11-06T08:28:03.052Z,22.14
2022-11-06T08:30:30.819Z,22.16
2022-11-06T08:33:02.784Z,22.13
2022-11-06T08:35:29.765Z,22.16
2022-11-06T08:37:56.691Z,22.16
2022-11-06T08:40:29.419Z,22.16
2022-11-06T08:43:05.628Z,22.17
2022-11-06T08:45:32.980Z,22.16
2022-11-06T08:48:04.481Z,22.14
2022-11-06T08:50:32.080Z,22.15
2022-11-06T08:55:21.578Z,22.14
2022-11-06T08:57:48.155Z,22.13
2022-11-06T09:00:15.613Z,22.14
2022-11-06T09:02:42.191Z,22.14
2022-11-06T09:05:09.126Z,22.13
2022-11-06T09:07:35.767Z,22.15
2022-11-06T09:10:02.467Z,22.13
2022-11-06T09:12:29.040Z,22.14
2022-11-06T09:14:55.632Z,22.14
2022-11-06T09:17:24.318Z,22.14
2022-11-06T09:19:51.697Z,22.00
2022-11-06T09:22:18.979Z,21.80
2022-11-06T09:25:02.735Z,22.13
2022-11-06T09:27:31.075Z,22.13
2022-11-06T09:29:58.145Z,22.13
2022-11-06T09:32:26.098Z,22.14
2022-11-06T09:34:52.654Z,22.14
2022-11-06T09:37:19.260Z,22.15
2022-11-06T09:39:45.743Z,22.15
2022-11-06T09:42:46.071Z,22.14
2022-11-06T09:45:17.813Z,22.13
2022-11-06T09:47:50.979Z,22.11
2022-11-06T09:50:26.702Z,22.14
2022-11-06T09:53:05.608Z,22.14
2022-11-06T09:55:41.347Z,22.17
2022-11-06T09:58:16.810Z,22.18
2022-11-06T10:00:43.825Z,22.18
2022-11-06T10:03:23.867Z,22.18
2022-11-06T10:05:53.158Z,22.20
2022-11-06T10:08:26.939Z,22.21
2022-11-06T10:11:05.733Z,22.22
2022-11-06T10:14:00.121Z,22.26
2022-11-06T10:16:46.834Z,22.27
2022-11-06T10:19:25.530Z,22.30
2022-11-06T10:22:07.244Z,22.33
2022-11-06T10:24:57.502Z,22.36
2022-11-06T10:27:32.214Z,22.37
2022-11-06T10:30:13.015Z,22.39
2022-11-06T10:32:52.920Z,22.42
2022-11-06T10:35:24.670Z,22.44
2022-11-06T10:37:58.319Z,22.45
2022-11-06T10:42:56.159Z,22.51
2022-11-06T10:45:24.694Z,22.52
2022-11-06T10:48:10.845Z,22.55
2022-11-06T10:51:04.578Z,22.57
2022-11-06T10:53:37.143Z,22.58
2022-11-06T10:56:28.623Z,22.63
2022-11-06T10:58:55.267Z,22.63
2022-11-06T11:01:23.149Z,22.66
2022-11-06T11:03:51.547Z,22.68
2022-11-06T11:06:18.595Z,22.70
2022-11-06T11:08:49.193Z,22.73
2022-11-06T11:11:15.824Z,22.75
2022-11-06T11:13:57.470Z,22.79
2022-11-06T11:16:28.248Z,22.82
2022-11-06T11:18:54.924Z,22.86
2022-11-06T11:21:27.659Z,22.88
2022-11-06T11:24:00.486Z,22.92
2022-11-06T11:26:29.904Z,22.94
2022-11-06T11:29:03.223Z,22.96
2022-11-06T11:31:33.070Z,22.95
2022-11-06T11:34:05.010Z,23.00
2022-11-06T11:36:57.737Z,23.01
2022-11-06T11:39:42.616Z,22.93
2022-11-06T11:42:27.689Z,23.03
2022-11-06T11:45:16.435Z,23.04
2022-11-06T11:47:48.828Z,22.99
2022-11-06T11:50:26.801Z,23.05
2022-11-06T11:53:14.059Z,23.07
2022-11-06T11:55:44.752Z,23.08
2022-11-06T11:58:23.986Z,23.08
2022-11-06T12:00:54.860Z,23.09
2022-11-06T12:05:44.937Z,23.10
2022-11-06T12:08:23.732Z,23.08
2022-11-06T12:10:50.578Z,23.08
2022-11-06T12:13:22.535Z,23.07
2022-11-06T12:16:13.715Z,23.04
2022-11-06T12:18:55.998Z,23.03
2022-11-06T12:21:33.246Z,23.01
2022-11-06T12:24:25.762Z,22.99
2022-11-06T12:26:57.945Z,22.98
2022-11-06T12:29:33.601Z,22.97
2022-11-06T12:32:02.980Z,22.97
2022-11-06T12:34:44.831Z,22.97
2022-11-06T12:37:24.203Z,22.97
2022-11-06T12:40:18.454Z,22.97
2022-11-06T12:43:20.773Z,22.95
2022-11-06T12:46:08.818Z,22.93
2022-11-06T12:48:35.634Z,22.91
2022-11-06T12:51:29.911Z,22.91
2022-11-06T12:54:24.918Z,22.90
2022-11-06T12:57:14.340Z,22.91
2022-11-06T13:00:04.631Z,22.90
2022-11-06T13:04:59.007Z,22.92
2022-11-06T13:07:47.159Z,22.90
2022-11-06T13:10:28.878Z,22.92
2022-11-06T13:13:30.925Z,22.91
2022-11-06T13:16:24.265Z,22.88
2022-11-06T13:19:00.843Z,22.88
2022-11-06T13:21:39.305Z,22.87
2022-11-06T13:24:25.207Z,22.84
2022-11-06T13:27:01.611Z,22.85
2022-11-06T13:29:30.222Z,22.84
2022-11-06T13:32:04.839Z,22.81
2022-11-06T13:34:38.037Z,22.83
2022-11-06T13:39:29.792Z,22.83
2022-11-06T13:41:58.004Z,22.84
2022-11-06T13:44:25.450Z,22.83
2022-11-06T13:46:54.765Z,22.84
2022-11-06T13:49:39.683Z,22.83
2022-11-06T13:52:35.501Z,22.82
2022-11-06T13:55:14.327Z,22.81
2022-11-06T13:58:00.049Z,22.81
2022-11-06T14:00:41.803Z,22.80
2022-11-06T14:03:48.179Z,22.81
2022-11-06T14:08:48.771Z,22.84
2022-11-06T14:11:28.351Z,22.86
2022-11-06T14:14:21.230Z,22.88
2022-11-06T14:17:09.437Z,22.90
2022-11-06T14:19:36.614Z,22.91
2022-11-06T14:22:08.853Z,22.93
2022-11-06T14:24:39.983Z,22.93
2022-11-06T14:27:23.221Z,22.90
2022-11-06T14:30:15.419Z,22.87
2022-11-06T14:32:48.072Z,22.84
2022-11-06T14:35:37.959Z,22.84
2022-11-06T14:38:28.970Z,22.83
2022-11-06T14:40:56.655Z,22.80
2022-11-06T14:43:31.662Z,22.78
2022-11-06T14:46:00.568Z,22.76
2022-11-06T14:48:39.474Z,22.74
2022-11-06T14:53:37.719Z,22.57
2022-11-06T14:56:08.134Z,22.67
2022-11-06T14:58:39.043Z,22.65
2022-11-06T15:01:08.731Z,22.64
2022-11-06T15:03:48.798Z,22.62
2022-11-06T15:06:16.178Z,22.61
2022-11-06T15:08:45.913Z,22.59
2022-11-06T15:13:26.743Z,22.57
2022-11-06T15:16:05.823Z,22.56
2022-11-06T15:18:36.251Z,22.55
2022-11-06T15:21:07.946Z,22.54
2022-11-06T15:24:01.292Z,22.51
2022-11-06T15:26:37.054Z,22.52
2022-11-06T15:29:19.509Z,22.53
2022-11-06T15:31:50.637Z,22.53
2022-11-06T15:34:26.210Z,22.47
2022-11-06T15:39:29.178Z,22.56
2022-11-06T15:41:56.674Z,22.58
2022-11-06T15:44:25.039Z,22.59
2022-11-06T15:46:59.123Z,22.61
2022-11-06T15:49:26.210Z,22.62
2022-11-06T15:52:02.303Z,22.63
2022-11-06T15:54:31.639Z,22.61
2022-11-06T15:57:00.646Z,22.61
2022-11-06T15:59:29.960Z,22.51
2022-11-06T16:01:56.584Z,22.60
2022-11-06T16:04:25.682Z,22.58
2022-11-06T16:06:54.387Z,22.58
2022-11-06T16:09:23.901Z,22.57
2022-11-06T16:11:52.027Z,22.56
2022-11-06T16:14:20.326Z,22.55
2022-11-06T16:16:55.749Z,22.55
2022-11-06T16:19:23.254Z,22.54
2022-11-06T16:21:58.058Z,22.53
2022-11-06T16:24:28.891Z,22.52
2022-11-06T16:26:55.998Z,22.53
2022-11-06T16:29:29.233Z,22.52
2022-11-06T16:32:08.453Z,22.52
2022-11-06T16:34:38.122Z,22.50
2022-11-06T16:37:21.480Z,22.51
2022-11-06T16:39:50.998Z,22.51
2022-11-06T16:42:27.723Z,22.50
2022-11-06T16:45:19.463Z,22.50
2022-11-06T16:48:11.010Z,22.51
2022-11-06T16:50:53.015Z,22.51
2022-11-06T16:53:21.967Z,22.51
2022-11-06T16:56:05.803Z,22.50
2022-11-06T16:58:48.559Z,22.51
2022-11-06T17:01:20.415Z,22.50
2022-11-06T17:03:54.529Z,22.52
2022-11-06T17:06:30.825Z,22.52
2022-11-06T17:09:26.375Z,22.52
2022-11-06T17:11:57.455Z,22.44
2022-11-06T17:14:24.837Z,22.52
2022-11-06T17:16:57.739Z,22.53
2022-11-06T17:19:25.930Z,22.55
2022-11-06T17:21:52.625Z,22.55
2022-11-06T17:24:37.073Z,22.54
2022-11-06T17:27:05.182Z,22.44
2022-11-06T17:29:34.515Z,22.54
2022-11-06T17:32:01.063Z,22.58
2022-11-06T17:34:27.584Z,22.58
2022-11-06T17:36:54.476Z,22.60
2022-11-06T17:39:22.476Z,22.62
2022-11-06T17:41:49.095Z,22.63
2022-11-06T17:44:16.894Z,22.64
2022-11-06T17:46:45.638Z,22.65
2022-11-06T17:49:17.460Z,22.66
2022-11-06T17:51:52.730Z,22.68
2022-11-06T17:54:25.340Z,22.69
2022-11-06T17:56:53.745Z,22.72
2022-11-06T17:59:20.972Z,22.73
2022-11-06T18:01:47.971Z,22.74
2022-11-06T18:04:14.721Z,22.73
2022-11-06T18:06:44.741Z,22.69
2022-11-06T18:09:11.436Z,22.79
2022-11-06T18:11:38.528Z,22.78
2022-11-06T18:14:05.070Z,22.80
2022-11-06T18:16:33.907Z,22.76
2022-11-06T18:19:01.549Z,22.82
2022-11-06T18:21:28.119Z,22.79
2022-11-06T18:23:54.750Z,22.82
2022-11-06T18:26:21.660Z,22.85
2022-11-06T18:28:49.595Z,22.87
2022-11-06T18:31:16.226Z,22.87
2022-11-06T18:33:43.130Z,22.88
2022-11-06T18:36:11.203Z,22.89
2022-11-06T18:38:38.023Z,22.89
2022-11-06T18:41:17.164Z,22.90
2022-11-06T18:43:44.442Z,22.86
2022-11-06T18:46:14.281Z,22.92
2022-11-06T18:48:41.285Z,22.93
2022-11-06T18:51:10.172Z,22.88
2022-11-06T18:53:38.687Z,22.90
2022-11-06T18:56:08.797Z,22.92
2022-11-06T18:58:35.548Z,22.92
2022-11-06T19:01:14.037Z,22.92
2022-11-06T19:03:41.575Z,22.90
2022-11-06T19:06:11.335Z,22.89
2022-11-06T19:08:38.136Z,22.89
2022-11-06T19:11:05.935Z,22.88
2022-11-06T19:13:32.928Z,22.79
2022-11-06T19:15:59.911Z,22.85
2022-11-06T19:18:30.363Z,22.85
2022-11-06T19:20:57.170Z,22.84
2022-11-06T19:23:24.371Z,22.84
2022-11-06T19:26:04.326Z,22.82
2022-11-06T19:28:37.890Z,22.81
2022-11-06T19:31:04.661Z,22.81
2022-11-06T19:33:31.253Z,22.81
2022-11-06T19:36:00.736Z,22.80
2022-11-06T19:38:28.291Z,22.80
2022-11-06T19:41:00.456Z,22.78
2022-11-06T19:43:35.721Z,22.78
2022-11-06T19:46:04.208Z,22.76
2022-11-06T19:48:32.181Z,22.76
2022-11-06T19:51:00.231Z,22.76
2022-11-06T19:53:27.715Z,22.75
2022-11-06T19:55:54.420Z,22.77
2022-11-06T19:58:23.666Z,22.76
2022-11-06T20:00:53.292Z,22.77
2022-11-06T20:03:19.938Z,22.76
2022-11-06T20:05:46.675Z,22.69
2022-11-06T20:08:13.631Z,22.76
2022-11-06T20:10:41.471Z,22.78
2022-11-06T20:13:08.655Z,22.78
2022-11-06T20:15:35.813Z,22.78
2022-11-06T20:18:02.427Z,22.79
2022-11-06T20:20:34.749Z,22.79
2022-11-06T20:23:02.860Z,22.78
2022-11-06T20:25:30.690Z,22.78
2022-11-06T20:27:57.328Z,22.77
2022-11-06T20:30:24.154Z,22.76
2022-11-06T20:32:50.907Z,22.76
2022-11-06T20:35:19.235Z,22.76
2022-11-06T20:37:45.866Z,22.75
2022-11-06T20:40:13.068Z,22.71
2022-11-06T20:42:39.814Z,22.74
2022-11-06T20:45:07.499Z,22.74
2022-11-06T20:47:34.131Z,22.73
2022-11-06T20:50:00.659Z,22.73
2022-11-06T20:52:27.271Z,22.73
2022-11-06T20:54:53.796Z,22.72
2022-11-06T20:57:20.378Z,22.61
2022-11-06T20:59:46.948Z,22.70
2022-11-06T21:02:13.797Z,22.69
2022-11-06T21:04:40.962Z,22.68
2022-11-06T21:07:10.020Z,22.67
2022-11-06T21:09:36.571Z,22.68
2022-11-06T21:12:03.436Z,22.70
2022-11-06T21:14:31.267Z,22.71
2022-11-06T21:16:58.306Z,22.72
2022-11-06T21:19:25.003Z,22.73
2022-11-06T21:21:51.739Z,22.75
2022-11-06T21:24:18.269Z,22.77
2022-11-06T21:26:44.863Z,22.78
2022-11-06T21:29:12.054Z,22.79
2022-11-06T21:31:42.705Z,22.80
2022-11-06T21:34:15.404Z,22.80
2022-11-06T21:36:41.930Z,22.81
2022-11-06T21:39:12.376Z,22.82
2022-11-06T21:41:39.374Z,22.82
2022-11-06T21:44:06.923Z,22.83
2022-11-06T21:46:34.179Z,22.86
2022-11-06T21:49:00.943Z,22.76
2022-11-06T21:51:30.281Z,22.87
2022-11-06T21:54:16.367Z,22.88
2022-11-06T21:56:44.347Z,22.89
2022-11-06T21:59:13.903Z,22.88
2022-11-06T22:01:41.034Z,22.89
2022-11-06T22:04:08.111Z,22.90
2022-11-06T22:06:34.791Z,22.90
2022-11-06T22:09:02.708Z,22.92
2022-11-06T22:11:32.535Z,22.92
2022-11-06T22:14:01.858Z,22.93
2022-11-06T22:16:32.584Z,22.94
2022-11-06T22:18:59.754Z,22.95
2022-11-06T22:21:28.516Z,22.95
2022-11-06T22:23:56.051Z,22.95
2022-11-06T22:26:24.803Z,22.96
2022-11-06T22:28:56.417Z,22.97
2022-11-06T22:31:24.111Z,22.98
2022-11-06T22:33:53.897Z,22.96
2022-11-06T22:36:21.819Z,22.96
2022-11-06T22:38:49.337Z,22.95
2022-11-06T22:41:21.395Z,22.95
2022-11-06T22:43:48.052Z,22.97
2022-11-06T22:46:18.193Z,22.97
2022-11-06T22:48:45.752Z,22.96
2022-11-06T22:51:15.368Z,22.94
2022-11-06T22:53:42.411Z,22.92
2022-11-06T22:56:09.550Z,22.91
2022-11-06T22:58:36.090Z,22.90
2022-11-06T23:01:02.684Z,22.88
2022-11-06T23:05:48.082Z,22.87
2022-11-06T23:08:15.350Z,22.84
2022-11-06T23:10:42.427Z,22.83
2022-11-06T23:13:10.220Z,22.83
2022-11-06T23:15:37.663Z,22.82
2022-11-06T23:18:04.867Z,22.79
2022-11-06T23:20:33.294Z,22.77
2022-11-06T23:23:00.769Z,22.76
2022-11-06T23:25:28.360Z,22.74
2022-11-06T23:27:55.004Z,22.73
2022-11-06T23:30:21.547Z,22.72
2022-11-06T23:32:48.100Z,22.71
2022-11-06T23:35:16.945Z,22.69
2022-11-06T23:37:43.963Z,22.67
2022-11-06T23:40:11.478Z,22.66
2022-11-06T23:42:38.331Z,22.65
2022-11-06T23:45:23.850Z,22.64
2022-11-06T23:47:50.959Z,22.61
2022-11-06T23:50:17.960Z,22.61
2022-11-06T23:52:45.210Z,22.59
2022-11-06T23:55:12.298Z,22.58
2022-11-06T23:57:38.992Z,22.50
